Providence, RI (02901)

6:27 PM EDT on June 24, 2018 (GMT -0400)
College Hill | | Change Station

Elev 81 ft 41.82 °N, 71.40 °W | Updated 5 minutes ago

Overcast
Overcast
72.1 °F
Feels Like 71 °F
N
0
Wind Variable Wind from NE
Gusts 4.0 mph

Today
High -- | Low -- °F
--% Chance of Precip.
Yesterday
High -- | Low -- °F
Precip. -- in
Pressure 29.80 in
Visibility 10.0 miles
Clouds Scattered Clouds 1800 ft
Scattered Clouds 5000 ft
Mostly Cloudy 8500 ft
Mostly Cloudy 13000 ft
Mostly Cloudy 30000 ft
Heat Index 71 °F
Dew Point 67 °F
Humidity 84%
Rainfall 0.00 in
Snow Depth Not available.
5:11 AM 8:24 PM
Waxing Gibbous, 90% visible
SPECI KPVD 242217Z 19008KT 10SM SCT018 SCT050 BKN085 BKN130 BKN300 23/18 A2980 RMK AO2 T02330183
Pressure 29.80 in
Visibility 10.0 miles
Clouds Scattered Clouds 1800 ft
Scattered Clouds 5000 ft
Mostly Cloudy 8500 ft
Mostly Cloudy 13000 ft
Mostly Cloudy 30000 ft
Heat Index 71 °F
Dew Point 67 °F
Humidity 84%
Rainfall 0.00 in
Snow Depth Not available.
5:11 AM 8:24 PM
Waxing Gibbous, 90% visible
SPECI KPVD 242217Z 19008KT 10SM SCT018 SCT050 BKN085 BKN130 BKN300 23/18 A2980 RMK AO2 T02330183

Get Severe Weather Alerts

Thanks for signing up!

Be on the lookout for a verification email in your inbox.

You'll start receiving the daily forecast at 6 AM.

×

10-Day Weather Forecast

Almanac

Astronomy

Jun. 24, 2018 Rise Set
Actual Time
Civil Twilight
Nautical Twilight
Astronomical Twilight
Moon
Length of Visible Light
Length of Day
Tomorrow will be .
, % of the Moon is Illuminated

Today's Extremes

State Highs State Lows

Community

WunderPhotos

Category 6

Welcome to Category 6. This is the collective home for Weather Underground's featured writeups by Dr. Jeff Masters (right), Bob Henson (left), Chris Burt, and other regular contributors.

Nearby

Air Quality

  Air Quality AQ Index Pollutant
Not available.

Snow Depth

Station Depth Elevation

Earthquake Activity

City Distance Mag. Time & Date
Minimum magnitude displayed is 2.5.

Coastal Water Temperatures

Place Temperature

Stations

Nearby Weather Stations

Station Location Temp. Windchill Dew Point Humidity Wind Precip. Elev Updated Type
                   

Watches & Warnings

There are currently no watches in effect.